sensor_id;sensor_type;location;lat;lon;timestamp;temperature;humidity
63017;DHT22;50274;45.640;11.756;2022-09-09T00:01:04;23.20;72.70
63017;DHT22;50274;45.640;11.756;2022-09-09T00:03:47;23.10;72.90
63017;DHT22;50274;45.640;11.756;2022-09-09T00:06:42;23.10;72.80
63017;DHT22;50274;45.640;11.756;2022-09-09T00:09:12;23.10;72.70
63017;DHT22;50274;45.640;11.756;2022-09-09T00:17:43;23.10;72.80
63017;DHT22;50274;45.640;11.756;2022-09-09T00:20:21;23.10;72.80
63017;DHT22;50274;45.640;11.756;2022-09-09T00:25:46;23.10;72.90
63017;DHT22;50274;45.640;11.756;2022-09-09T00:28:22;23.10;72.90
63017;DHT22;50274;45.640;11.756;2022-09-09T00:30:48;23.10;72.90
63017;DHT22;50274;45.640;11.756;2022-09-09T00:33:17;23.10;72.90
63017;DHT22;50274;45.640;11.756;2022-09-09T00:35:52;23.10;73.00
63017;DHT22;50274;45.640;11.756;2022-09-09T00:38:28;23.00;73.00
63017;DHT22;50274;45.640;11.756;2022-09-09T00:43:37;22.90;73.20
63017;DHT22;50274;45.640;11.756;2022-09-09T00:49:03;22.90;73.20
63017;DHT22;50274;45.640;11.756;2022-09-09T00:57:35;22.90;72.90
63017;DHT22;50274;45.640;11.756;2022-09-09T01:00:20;22.90;72.80
63017;DHT22;50274;45.640;11.756;2022-09-09T01:08:30;22.80;72.80
63017;DHT22;50274;45.640;11.756;2022-09-09T01:11:00;22.80;72.80
63017;DHT22;50274;45.640;11.756;2022-09-09T01:13:33;22.80;72.80
63017;DHT22;50274;45.640;11.756;2022-09-09T01:16:02;22.80;72.80
63017;DHT22;50274;45.640;11.756;2022-09-09T01:18:38;22.80;72.90
63017;DHT22;50274;45.640;11.756;2022-09-09T01:24:30;22.70;72.80
63017;DHT22;50274;45.640;11.756;2022-09-09T01:27:04;22.70;72.70
63017;DHT22;50274;45.640;11.756;2022-09-09T01:29:32;22.70;72.70
63017;DHT22;50274;45.640;11.756;2022-09-09T01:32:00;22.70;72.70
63017;DHT22;50274;45.640;11.756;2022-09-09T01:34:33;22.70;72.70
63017;DHT22;50274;45.640;11.756;2022-09-09T01:37:09;22.70;72.70
63017;DHT22;50274;45.640;11.756;2022-09-09T01:39:38;22.70;72.70
63017;DHT22;50274;45.640;11.756;2022-09-09T01:42:06;22.60;72.70
63017;DHT22;50274;45.640;11.756;2022-09-09T01:44:34;22.60;72.70
63017;DHT22;50274;45.640;11.756;2022-09-09T01:47:02;22.60;72.70
63017;DHT22;50274;45.640;11.756;2022-09-09T01:49:28;22.60;72.80
63017;DHT22;50274;45.640;11.756;2022-09-09T01:51:55;22.60;72.90
63017;DHT22;50274;45.640;11.756;2022-09-09T01:54:23;22.50;72.90
63017;DHT22;50274;45.640;11.756;2022-09-09T01:57:06;22.50;73.00
63017;DHT22;50274;45.640;11.756;2022-09-09T02:00:00;22.40;73.10
63017;DHT22;50274;45.640;11.756;2022-09-09T02:02:39;22.40;73.10
63017;DHT22;50274;45.640;11.756;2022-09-09T02:08:20;22.40;73.20
63017;DHT22;50274;45.640;11.756;2022-09-09T02:13:14;22.40;73.20
63017;DHT22;50274;45.640;11.756;2022-09-09T02:18:08;22.40;73.20
63017;DHT22;50274;45.640;11.756;2022-09-09T02:20:38;22.40;73.20
63017;DHT22;50274;45.640;11.756;2022-09-09T02:23:05;22.40;73.20
63017;DHT22;50274;45.640;11.756;2022-09-09T02:25:34;22.40;73.20
63017;DHT22;50274;45.640;11.756;2022-09-09T02:28:03;22.40;73.10
63017;DHT22;50274;45.640;11.756;2022-09-09T02:30:31;22.40;73.10
63017;DHT22;50274;45.640;11.756;2022-09-09T02:32:58;22.30;73.20
63017;DHT22;50274;45.640;11.756;2022-09-09T02:35:25;22.30;73.30
63017;DHT22;50274;45.640;11.756;2022-09-09T02:37:56;22.30;73.30
63017;DHT22;50274;45.640;11.756;2022-09-09T02:40:22;22.30;73.30
63017;DHT22;50274;45.640;11.756;2022-09-09T02:42:49;22.30;73.40
63017;DHT22;50274;45.640;11.756;2022-09-09T02:45:24;22.20;73.40
63017;DHT22;50274;45.640;11.756;2022-09-09T02:48:05;22.20;73.40
63017;DHT22;50274;45.640;11.756;2022-09-09T02:50:50;22.20;73.50
63017;DHT22;50274;45.640;11.756;2022-09-09T02:53:30;22.20;73.40
63017;DHT22;50274;45.640;11.756;2022-09-09T02:56:11;22.20;73.40
63017;DHT22;50274;45.640;11.756;2022-09-09T02:58:39;22.10;73.50
63017;DHT22;50274;45.640;11.756;2022-09-09T03:01:05;22.10;73.50
63017;DHT22;50274;45.640;11.756;2022-09-09T03:03:31;22.10;73.50
63017;DHT22;50274;45.640;11.756;2022-09-09T03:05:58;22.10;73.50
63017;DHT22;50274;45.640;11.756;2022-09-09T03:08:23;22.10;73.60
63017;DHT22;50274;45.640;11.756;2022-09-09T03:10:49;22.10;73.60
63017;DHT22;50274;45.640;11.756;2022-09-09T03:13:15;22.10;73.60
63017;DHT22;50274;45.640;11.756;2022-09-09T03:15:41;22.10;73.50
63017;DHT22;50274;45.640;11.756;2022-09-09T03:18:07;22.10;73.50
63017;DHT22;50274;45.640;11.756;2022-09-09T03:20:33;22.10;73.50
63017;DHT22;50274;45.640;11.756;2022-09-09T03:23:00;22.10;73.50
63017;DHT22;50274;45.640;11.756;2022-09-09T03:25:26;22.10;73.50
63017;DHT22;50274;45.640;11.756;2022-09-09T03:27:53;22.20;73.50
63017;DHT22;50274;45.640;11.756;2022-09-09T03:30:24;22.10;73.50
63017;DHT22;50274;45.640;11.756;2022-09-09T03:32:50;22.10;73.60
63017;DHT22;50274;45.640;11.756;2022-09-09T03:35:16;22.10;73.60
63017;DHT22;50274;45.640;11.756;2022-09-09T03:37:42;22.10;73.60
63017;DHT22;50274;45.640;11.756;2022-09-09T03:40:09;22.10;73.50
63017;DHT22;50274;45.640;11.756;2022-09-09T03:42:38;22.10;73.60
63017;DHT22;50274;45.640;11.756;2022-09-09T03:45:06;22.10;73.50
63017;DHT22;50274;45.640;11.756;2022-09-09T03:47:32;22.10;73.50
63017;DHT22;50274;45.640;11.756;2022-09-09T03:49:58;22.10;73.50
63017;DHT22;50274;45.640;11.756;2022-09-09T03:52:24;22.10;73.50
63017;DHT22;50274;45.640;11.756;2022-09-09T03:54:52;22.10;73.60
63017;DHT22;50274;45.640;11.756;2022-09-09T03:57:18;22.10;73.70
63017;DHT22;50274;45.640;11.756;2022-09-09T03:59:44;22.10;73.70
63017;DHT22;50274;45.640;11.756;2022-09-09T04:02:10;22.10;73.70
63017;DHT22;50274;45.640;11.756;2022-09-09T04:04:36;22.00;73.60
63017;DHT22;50274;45.640;11.756;2022-09-09T04:07:02;22.00;73.60
63017;DHT22;50274;45.640;11.756;2022-09-09T04:09:28;22.00;73.70
63017;DHT22;50274;45.640;11.756;2022-09-09T04:11:54;22.10;73.70
63017;DHT22;50274;45.640;11.756;2022-09-09T04:14:20;22.00;73.70
63017;DHT22;50274;45.640;11.756;2022-09-09T04:16:46;22.00;73.80
63017;DHT22;50274;45.640;11.756;2022-09-09T04:19:13;22.00;73.80
63017;DHT22;50274;45.640;11.756;2022-09-09T04:21:40;22.00;73.80
63017;DHT22;50274;45.640;11.756;2022-09-09T04:24:09;22.00;73.80
63017;DHT22;50274;45.640;11.756;2022-09-09T04:26:35;22.00;73.90
63017;DHT22;50274;45.640;11.756;2022-09-09T04:29:03;21.90;73.90
63017;DHT22;50274;45.640;11.756;2022-09-09T04:31:29;21.90;74.00
63017;DHT22;50274;45.640;11.756;2022-09-09T04:33:55;22.00;74.00
63017;DHT22;50274;45.640;11.756;2022-09-09T04:36:21;21.90;74.00
63017;DHT22;50274;45.640;11.756;2022-09-09T04:38:47;22.00;74.00
63017;DHT22;50274;45.640;11.756;2022-09-09T04:41:14;22.00;73.90
63017;DHT22;50274;45.640;11.756;2022-09-09T04:43:42;22.00;73.80
63017;DHT22;50274;45.640;11.756;2022-09-09T04:46:08;22.00;73.70
63017;DHT22;50274;45.640;11.756;2022-09-09T04:48:34;22.00;73.70
63017;DHT22;50274;45.640;11.756;2022-09-09T04:51:03;22.00;73.70
63017;DHT22;50274;45.640;11.756;2022-09-09T04:53:30;22.00;73.80
63017;DHT22;50274;45.640;11.756;2022-09-09T04:56:10;21.90;73.90
63017;DHT22;50274;45.640;11.756;2022-09-09T04:58:38;21.90;74.00
63017;DHT22;50274;45.640;11.756;2022-09-09T05:01:14;21.90;74.10
63017;DHT22;50274;45.640;11.756;2022-09-09T05:03:41;21.90;74.10
63017;DHT22;50274;45.640;11.756;2022-09-09T05:06:10;21.80;74.10
63017;DHT22;50274;45.640;11.756;2022-09-09T05:08:37;21.80;74.20
63017;DHT22;50274;45.640;11.756;2022-09-09T05:11:14;21.80;74.20
63017;DHT22;50274;45.640;11.756;2022-09-09T05:13:41;21.90;74.20
63017;DHT22;50274;45.640;11.756;2022-09-09T05:16:08;21.80;74.20
63017;DHT22;50274;45.640;11.756;2022-09-09T05:18:39;21.90;74.20
63017;DHT22;50274;45.640;11.756;2022-09-09T05:21:06;21.80;74.20
63017;DHT22;50274;45.640;11.756;2022-09-09T05:23:33;21.90;74.30
63017;DHT22;50274;45.640;11.756;2022-09-09T05:26:00;21.90;74.30
63017;DHT22;50274;45.640;11.756;2022-09-09T05:28:26;22.00;74.20
63017;DHT22;50274;45.640;11.756;2022-09-09T05:30:57;22.00;74.20
63017;DHT22;50274;45.640;11.756;2022-09-09T05:33:23;22.00;74.30
63017;DHT22;50274;45.640;11.756;2022-09-09T05:38:28;22.00;74.20
63017;DHT22;50274;45.640;11.756;2022-09-09T05:40:55;22.00;74.20
63017;DHT22;50274;45.640;11.756;2022-09-09T05:43:23;22.00;74.20
63017;DHT22;50274;45.640;11.756;2022-09-09T05:46:03;22.10;74.30
63017;DHT22;50274;45.640;11.756;2022-09-09T05:48:35;22.10;74.30
63017;DHT22;50274;45.640;11.756;2022-09-09T05:51:03;22.10;74.20
63017;DHT22;50274;45.640;11.756;2022-09-09T05:53:30;22.10;74.20
63017;DHT22;50274;45.640;11.756;2022-09-09T05:56:16;22.10;74.20
63017;DHT22;50274;45.640;11.756;2022-09-09T05:58:43;22.10;74.30
63017;DHT22;50274;45.640;11.756;2022-09-09T06:01:16;22.10;74.20
63017;DHT22;50274;45.640;11.756;2022-09-09T06:03:43;22.20;74.30
63017;DHT22;50274;45.640;11.756;2022-09-09T06:06:12;22.20;74.20
63017;DHT22;50274;45.640;11.756;2022-09-09T06:08:40;22.20;74.20
63017;DHT22;50274;45.640;11.756;2022-09-09T06:11:12;22.20;74.30
63017;DHT22;50274;45.640;11.756;2022-09-09T06:13:39;22.20;74.30
63017;DHT22;50274;45.640;11.756;2022-09-09T06:16:13;22.20;74.20
63017;DHT22;50274;45.640;11.756;2022-09-09T06:18:40;22.30;74.20
63017;DHT22;50274;45.640;11.756;2022-09-09T06:21:11;22.30;74.10
63017;DHT22;50274;45.640;11.756;2022-09-09T06:23:39;22.30;73.90
63017;DHT22;50274;45.640;11.756;2022-09-09T06:26:23;22.40;73.80
63017;DHT22;50274;45.640;11.756;2022-09-09T06:28:52;22.50;73.70
63017;DHT22;50274;45.640;11.756;2022-09-09T06:31:20;22.60;73.50
63017;DHT22;50274;45.640;11.756;2022-09-09T06:33:50;22.60;73.40
63017;DHT22;50274;45.640;11.756;2022-09-09T06:36:22;22.70;73.30
63017;DHT22;50274;45.640;11.756;2022-09-09T06:38:49;22.80;73.30
63017;DHT22;50274;45.640;11.756;2022-09-09T06:41:17;22.80;73.20
63017;DHT22;50274;45.640;11.756;2022-09-09T06:43:44;22.90;73.30
63017;DHT22;50274;45.640;11.756;2022-09-09T06:46:21;23.00;73.10
63017;DHT22;50274;45.640;11.756;2022-09-09T06:48:47;23.10;72.80
63017;DHT22;50274;45.640;11.756;2022-09-09T06:51:18;23.20;72.20
63017;DHT22;50274;45.640;11.756;2022-09-09T06:53:49;23.30;72.10
63017;DHT22;50274;45.640;11.756;2022-09-09T06:56:47;23.40;71.90
63017;DHT22;50274;45.640;11.756;2022-09-09T06:59:15;23.60;71.40
63017;DHT22;50274;45.640;11.756;2022-09-09T07:01:42;23.80;71.10
63017;DHT22;50274;45.640;11.756;2022-09-09T07:04:12;24.00;71.00
63017;DHT22;50274;45.640;11.756;2022-09-09T07:06:43;24.10;70.40
63017;DHT22;50274;45.640;11.756;2022-09-09T07:09:11;24.20;69.80
63017;DHT22;50274;45.640;11.756;2022-09-09T07:11:43;24.30;69.30
63017;DHT22;50274;45.640;11.756;2022-09-09T07:14:09;24.40;68.90
63017;DHT22;50274;45.640;11.756;2022-09-09T07:16:38;24.50;68.40
63017;DHT22;50274;45.640;11.756;2022-09-09T07:19:05;24.50;68.20
63017;DHT22;50274;45.640;11.756;2022-09-09T07:21:31;24.60;68.10
63017;DHT22;50274;45.640;11.756;2022-09-09T07:23:58;24.50;68.30
63017;DHT22;50274;45.640;11.756;2022-09-09T07:26:26;24.40;68.40
63017;DHT22;50274;45.640;11.756;2022-09-09T07:28:53;24.40;68.60
63017;DHT22;50274;45.640;11.756;2022-09-09T07:31:26;24.40;68.60
63017;DHT22;50274;45.640;11.756;2022-09-09T07:33:52;24.30;68.50
63017;DHT22;50274;45.640;11.756;2022-09-09T07:36:20;24.30;68.40
63017;DHT22;50274;45.640;11.756;2022-09-09T07:38:53;24.30;68.60
63017;DHT22;50274;45.640;11.756;2022-09-09T07:41:27;24.30;68.70
63017;DHT22;50274;45.640;11.756;2022-09-09T07:43:54;24.30;68.80
63017;DHT22;50274;45.640;11.756;2022-09-09T07:46:21;24.30;68.80
63017;DHT22;50274;45.640;11.756;2022-09-09T07:48:50;24.30;68.70
63017;DHT22;50274;45.640;11.756;2022-09-09T07:51:36;24.30;68.80
63017;DHT22;50274;45.640;11.756;2022-09-09T07:54:06;24.40;68.70
63017;DHT22;50274;45.640;11.756;2022-09-09T07:56:33;24.40;68.70
63017;DHT22;50274;45.640;11.756;2022-09-09T07:58:59;24.40;68.80
63017;DHT22;50274;45.640;11.756;2022-09-09T08:01:29;24.40;68.70
63017;DHT22;50274;45.640;11.756;2022-09-09T08:04:03;24.30;68.50
63017;DHT22;50274;45.640;11.756;2022-09-09T08:06:40;24.30;68.70
63017;DHT22;50274;45.640;11.756;2022-09-09T08:09:10;24.30;68.90
63017;DHT22;50274;45.640;11.756;2022-09-09T08:11:38;24.30;68.90
63017;DHT22;50274;45.640;11.756;2022-09-09T08:14:05;24.30;69.00
63017;DHT22;50274;45.640;11.756;2022-09-09T08:16:33;24.30;69.10
63017;DHT22;50274;45.640;11.756;2022-09-09T08:18:59;24.40;69.10
63017;DHT22;50274;45.640;11.756;2022-09-09T08:21:28;24.50;69.00
63017;DHT22;50274;45.640;11.756;2022-09-09T08:23:56;24.70;68.60
63017;DHT22;50274;45.640;11.756;2022-09-09T08:26:24;24.80;68.20
63017;DHT22;50274;45.640;11.756;2022-09-09T08:28:52;25.00;67.70
63017;DHT22;50274;45.640;11.756;2022-09-09T08:31:20;25.10;67.20
63017;DHT22;50274;45.640;11.756;2022-09-09T08:33:46;25.30;66.80
63017;DHT22;50274;45.640;11.756;2022-09-09T08:36:15;25.40;65.70
63017;DHT22;50274;45.640;11.756;2022-09-09T08:38:41;25.50;65.30
63017;DHT22;50274;45.640;11.756;2022-09-09T08:41:21;25.50;65.00
63017;DHT22;50274;45.640;11.756;2022-09-09T08:44:06;25.60;64.70
63017;DHT22;50274;45.640;11.756;2022-09-09T08:46:58;25.70;64.20
63017;DHT22;50274;45.640;11.756;2022-09-09T08:52:25;25.80;63.70
63017;DHT22;50274;45.640;11.756;2022-09-09T08:54:59;25.90;63.50
63017;DHT22;50274;45.640;11.756;2022-09-09T08:57:28;25.90;63.40
63017;DHT22;50274;45.640;11.756;2022-09-09T08:59:56;25.90;63.30
63017;DHT22;50274;45.640;11.756;2022-09-09T09:05:41;25.60;63.90
63017;DHT22;50274;45.640;11.756;2022-09-09T09:08:17;25.60;64.40
63017;DHT22;50274;45.640;11.756;2022-09-09T09:10:50;25.50;64.60
63017;DHT22;50274;45.640;11.756;2022-09-09T09:13:24;25.40;64.80
63017;DHT22;50274;45.640;11.756;2022-09-09T09:16:02;25.40;65.00
63017;DHT22;50274;45.640;11.756;2022-09-09T09:18:32;25.40;65.20
63017;DHT22;50274;45.640;11.756;2022-09-09T09:23:58;25.60;65.50
63017;DHT22;50274;45.640;11.756;2022-09-09T09:26:29;25.80;65.00
63017;DHT22;50274;45.640;11.756;2022-09-09T09:28:56;26.10;64.20
63017;DHT22;50274;45.640;11.756;2022-09-09T09:31:23;26.30;63.50
63017;DHT22;50274;45.640;11.756;2022-09-09T09:33:56;26.50;62.60
63017;DHT22;50274;45.640;11.756;2022-09-09T09:36:53;26.70;62.20
63017;DHT22;50274;45.640;11.756;2022-09-09T09:39:33;26.90;61.30
63017;DHT22;50274;45.640;11.756;2022-09-09T09:42:14;27.10;60.70
63017;DHT22;50274;45.640;11.756;2022-09-09T09:44:41;27.20;60.10
63017;DHT22;50274;45.640;11.756;2022-09-09T09:47:22;27.30;59.40
63017;DHT22;50274;45.640;11.756;2022-09-09T09:49:55;27.40;58.60
63017;DHT22;50274;45.640;11.756;2022-09-09T09:52:32;27.50;58.60
63017;DHT22;50274;45.640;11.756;2022-09-09T09:55:03;27.70;58.80
63017;DHT22;50274;45.640;11.756;2022-09-09T09:57:31;27.80;58.00
63017;DHT22;50274;45.640;11.756;2022-09-09T10:00:18;27.90;57.80
63017;DHT22;50274;45.640;11.756;2022-09-09T10:02:46;28.10;57.10
63017;DHT22;50274;45.640;11.756;2022-09-09T10:05:24;28.10;56.40
63017;DHT22;50274;45.640;11.756;2022-09-09T10:08:11;28.10;56.60
63017;DHT22;50274;45.640;11.756;2022-09-09T10:22:16;28.80;54.60
63017;DHT22;50274;45.640;11.756;2022-09-09T10:25:14;28.70;52.90
63017;DHT22;50274;45.640;11.756;2022-09-09T10:33:10;28.70;53.90
63017;DHT22;50274;45.640;11.756;2022-09-09T10:36:02;28.70;53.70
63017;DHT22;50274;45.640;11.756;2022-09-09T10:38:46;28.80;53.30
63017;DHT22;50274;45.640;11.756;2022-09-09T10:50:02;28.90;52.70
63017;DHT22;50274;45.640;11.756;2022-09-09T10:53:00;28.70;52.30
63017;DHT22;50274;45.640;11.756;2022-09-09T10:55:43;28.50;53.20
63017;DHT22;50274;45.640;11.756;2022-09-09T10:58:17;28.20;54.00
63017;DHT22;50274;45.640;11.756;2022-09-09T11:00:50;28.00;53.80
63017;DHT22;50274;45.640;11.756;2022-09-09T11:03:28;27.80;54.40
63017;DHT22;50274;45.640;11.756;2022-09-09T11:06:06;27.70;54.00
63017;DHT22;50274;45.640;11.756;2022-09-09T11:08:38;27.60;53.90
63017;DHT22;50274;45.640;11.756;2022-09-09T11:11:16;27.70;54.40
63017;DHT22;50274;45.640;11.756;2022-09-09T11:14:18;28.00;53.80
63017;DHT22;50274;45.640;11.756;2022-09-09T11:17:12;28.50;53.60
63017;DHT22;50274;45.640;11.756;2022-09-09T11:19:41;29.00;53.20
63017;DHT22;50274;45.640;11.756;2022-09-09T11:22:27;29.20;52.40
63017;DHT22;50274;45.640;11.756;2022-09-09T11:25:16;29.10;51.80
63017;DHT22;50274;45.640;11.756;2022-09-09T11:27:53;28.90;52.40
63017;DHT22;50274;45.640;11.756;2022-09-09T11:30:40;28.80;53.00
63017;DHT22;50274;45.640;11.756;2022-09-09T11:36:29;29.10;52.80
63017;DHT22;50274;45.640;11.756;2022-09-09T11:41:50;28.70;52.80
63017;DHT22;50274;45.640;11.756;2022-09-09T11:44:30;28.50;53.60
63017;DHT22;50274;45.640;11.756;2022-09-09T11:46:57;28.20;54.30
63017;DHT22;50274;45.640;11.756;2022-09-09T11:49:41;28.00;55.10
63017;DHT22;50274;45.640;11.756;2022-09-09T11:54:48;27.60;56.30
63017;DHT22;50274;45.640;11.756;2022-09-09T11:57:44;27.40;56.80
63017;DHT22;50274;45.640;11.756;2022-09-09T12:00:48;27.20;57.00
63017;DHT22;50274;45.640;11.756;2022-09-09T12:05:59;26.90;57.90
63017;DHT22;50274;45.640;11.756;2022-09-09T12:08:27;26.70;58.70
63017;DHT22;50274;45.640;11.756;2022-09-09T12:10:57;26.60;59.30
63017;DHT22;50274;45.640;11.756;2022-09-09T12:13:25;26.50;59.70
63017;DHT22;50274;45.640;11.756;2022-09-09T12:15:53;26.40;60.60
63017;DHT22;50274;45.640;11.756;2022-09-09T12:18:23;26.30;60.90
63017;DHT22;50274;45.640;11.756;2022-09-09T12:23:52;26.10;61.80
63017;DHT22;50274;45.640;11.756;2022-09-09T12:39:37;24.70;66.50
63017;DHT22;50274;45.640;11.756;2022-09-09T12:42:04;24.20;68.20
63017;DHT22;50274;45.640;11.756;2022-09-09T12:44:30;23.80;69.30
63017;DHT22;50274;45.640;11.756;2022-09-09T12:47:01;23.40;70.30
63017;DHT22;50274;45.640;11.756;2022-09-09T12:52:14;22.90;70.30
63017;DHT22;50274;45.640;11.756;2022-09-09T12:54:45;22.70;70.80
63017;DHT22;50274;45.640;11.756;2022-09-09T12:57:14;22.60;71.60
63017;DHT22;50274;45.640;11.756;2022-09-09T12:59:43;22.60;71.90
63017;DHT22;50274;45.640;11.756;2022-09-09T13:02:36;22.60;70.50
63017;DHT22;50274;45.640;11.756;2022-09-09T13:05:16;22.50;69.70
63017;DHT22;50274;45.640;11.756;2022-09-09T13:07:43;22.40;69.80
63017;DHT22;50274;45.640;11.756;2022-09-09T13:10:14;22.40;70.20
63017;DHT22;50274;45.640;11.756;2022-09-09T13:12:41;22.50;70.40
63017;DHT22;50274;45.640;11.756;2022-09-09T13:15:24;22.50;70.40
63017;DHT22;50274;45.640;11.756;2022-09-09T13:17:58;22.50;70.60
63017;DHT22;50274;45.640;11.756;2022-09-09T13:20:26;22.60;70.90
63017;DHT22;50274;45.640;11.756;2022-09-09T13:22:54;22.70;70.80
63017;DHT22;50274;45.640;11.756;2022-09-09T13:25:27;22.80;70.50
63017;DHT22;50274;45.640;11.756;2022-09-09T13:28:03;22.90;70.00
63017;DHT22;50274;45.640;11.756;2022-09-09T13:30:31;23.00;69.60
63017;DHT22;50274;45.640;11.756;2022-09-09T13:35:58;23.50;68.80
63017;DHT22;50274;45.640;11.756;2022-09-09T13:38:25;24.00;68.00
63017;DHT22;50274;45.640;11.756;2022-09-09T13:40:58;24.20;66.90
63017;DHT22;50274;45.640;11.756;2022-09-09T13:43:25;24.30;66.20
63017;DHT22;50274;45.640;11.756;2022-09-09T13:45:56;24.40;66.00
63017;DHT22;50274;45.640;11.756;2022-09-09T13:48:23;24.40;66.30
63017;DHT22;50274;45.640;11.756;2022-09-09T13:51:00;24.40;66.60
63017;DHT22;50274;45.640;11.756;2022-09-09T13:53:26;24.30;66.80
63017;DHT22;50274;45.640;11.756;2022-09-09T13:55:53;24.40;66.70
63017;DHT22;50274;45.640;11.756;2022-09-09T13:58:19;24.70;66.30
63017;DHT22;50274;45.640;11.756;2022-09-09T14:00:46;25.10;65.40
63017;DHT22;50274;45.640;11.756;2022-09-09T14:03:12;25.50;64.60
63017;DHT22;50274;45.640;11.756;2022-09-09T14:05:39;25.90;63.60
63017;DHT22;50274;45.640;11.756;2022-09-09T14:08:07;26.40;62.90
63017;DHT22;50274;45.640;11.756;2022-09-09T14:10:37;26.80;61.70
63017;DHT22;50274;45.640;11.756;2022-09-09T14:13:03;27.10;61.00
63017;DHT22;50274;45.640;11.756;2022-09-09T14:15:29;27.10;60.70
63017;DHT22;50274;45.640;11.756;2022-09-09T14:17:55;27.10;60.00
63017;DHT22;50274;45.640;11.756;2022-09-09T14:20:21;27.00;59.60
63017;DHT22;50274;45.640;11.756;2022-09-09T14:22:46;27.00;59.70
63017;DHT22;50274;45.640;11.756;2022-09-09T14:25:13;27.10;59.80
63017;DHT22;50274;45.640;11.756;2022-09-09T14:27:39;27.20;59.40
63017;DHT22;50274;45.640;11.756;2022-09-09T14:30:06;27.50;58.70
63017;DHT22;50274;45.640;11.756;2022-09-09T14:32:33;27.60;58.00
63017;DHT22;50274;45.640;11.756;2022-09-09T14:34:58;27.80;57.20
63017;DHT22;50274;45.640;11.756;2022-09-09T14:37:24;27.80;56.50
63017;DHT22;50274;45.640;11.756;2022-09-09T14:39:51;27.90;56.50
63017;DHT22;50274;45.640;11.756;2022-09-09T14:42:17;27.90;56.80
63017;DHT22;50274;45.640;11.756;2022-09-09T14:44:43;28.00;56.70
63017;DHT22;50274;45.640;11.756;2022-09-09T14:47:08;28.10;56.80
63017;DHT22;50274;45.640;11.756;2022-09-09T14:49:35;28.10;56.50
63017;DHT22;50274;45.640;11.756;2022-09-09T14:52:01;28.20;56.30
63017;DHT22;50274;45.640;11.756;2022-09-09T14:54:27;28.30;55.70
63017;DHT22;50274;45.640;11.756;2022-09-09T14:56:54;28.30;55.80
63017;DHT22;50274;45.640;11.756;2022-09-09T14:59:20;28.30;55.90
63017;DHT22;50274;45.640;11.756;2022-09-09T15:01:46;28.30;56.00
63017;DHT22;50274;45.640;11.756;2022-09-09T15:04:13;28.30;56.10
63017;DHT22;50274;45.640;11.756;2022-09-09T15:06:42;28.30;56.00
63017;DHT22;50274;45.640;11.756;2022-09-09T15:09:12;28.30;55.80
63017;DHT22;50274;45.640;11.756;2022-09-09T15:11:38;28.20;55.70
63017;DHT22;50274;45.640;11.756;2022-09-09T15:14:05;28.20;56.00
63017;DHT22;50274;45.640;11.756;2022-09-09T15:16:32;28.10;56.00
63017;DHT22;50274;45.640;11.756;2022-09-09T15:18:59;28.10;56.00
63017;DHT22;50274;45.640;11.756;2022-09-09T15:21:27;28.00;56.10
63017;DHT22;50274;45.640;11.756;2022-09-09T15:23:55;28.00;56.20
63017;DHT22;50274;45.640;11.756;2022-09-09T15:26:21;28.00;56.20
63017;DHT22;50274;45.640;11.756;2022-09-09T15:28:47;28.00;55.90
63017;DHT22;50274;45.640;11.756;2022-09-09T15:31:20;27.90;55.90
63017;DHT22;50274;45.640;11.756;2022-09-09T15:34:00;27.90;55.60
63017;DHT22;50274;45.640;11.756;2022-09-09T15:36:31;27.80;55.70
63017;DHT22;50274;45.640;11.756;2022-09-09T15:39:00;27.70;55.70
63017;DHT22;50274;45.640;11.756;2022-09-09T15:41:27;27.60;55.70
63017;DHT22;50274;45.640;11.756;2022-09-09T15:43:55;27.60;55.50
63017;DHT22;50274;45.640;11.756;2022-09-09T15:48:51;27.40;55.60
63017;DHT22;50274;45.640;11.756;2022-09-09T15:51:17;27.30;55.80
63017;DHT22;50274;45.640;11.756;2022-09-09T15:53:44;27.20;56.00
63017;DHT22;50274;45.640;11.756;2022-09-09T15:56:10;27.10;55.80
63017;DHT22;50274;45.640;11.756;2022-09-09T15:58:36;27.00;56.00
63017;DHT22;50274;45.640;11.756;2022-09-09T16:01:07;26.90;56.10
63017;DHT22;50274;45.640;11.756;2022-09-09T16:03:38;26.80;56.40
63017;DHT22;50274;45.640;11.756;2022-09-09T16:06:04;26.70;56.50
63017;DHT22;50274;45.640;11.756;2022-09-09T16:11:08;26.60;57.20
63017;DHT22;50274;45.640;11.756;2022-09-09T16:13:40;26.50;57.50
63017;DHT22;50274;45.640;11.756;2022-09-09T16:16:06;26.40;58.00
63017;DHT22;50274;45.640;11.756;2022-09-09T16:18:44;26.30;58.30
63017;DHT22;50274;45.640;11.756;2022-09-09T16:21:21;26.20;58.60
63017;DHT22;50274;45.640;11.756;2022-09-09T16:23:48;26.10;59.00
63017;DHT22;50274;45.640;11.756;2022-09-09T16:26:15;26.10;59.30
63017;DHT22;50274;45.640;11.756;2022-09-09T16:28:42;26.00;59.50
63017;DHT22;50274;45.640;11.756;2022-09-09T16:31:20;25.90;59.90
63017;DHT22;50274;45.640;11.756;2022-09-09T16:33:47;25.90;60.30
63017;DHT22;50274;45.640;11.756;2022-09-09T16:36:19;25.80;60.50
63017;DHT22;50274;45.640;11.756;2022-09-09T16:38:46;25.80;60.70
63017;DHT22;50274;45.640;11.756;2022-09-09T16:41:13;25.70;60.90
63017;DHT22;50274;45.640;11.756;2022-09-09T16:43:40;25.60;61.10
63017;DHT22;50274;45.640;11.756;2022-09-09T16:46:17;25.60;61.40
63017;DHT22;50274;45.640;11.756;2022-09-09T16:48:45;25.60;61.60
63017;DHT22;50274;45.640;11.756;2022-09-09T16:51:14;25.60;61.70
63017;DHT22;50274;45.640;11.756;2022-09-09T16:53:42;25.50;61.90
63017;DHT22;50274;45.640;11.756;2022-09-09T16:56:10;25.50;62.10
63017;DHT22;50274;45.640;11.756;2022-09-09T16:58:36;25.50;62.20
63017;DHT22;50274;45.640;11.756;2022-09-09T17:01:03;25.50;62.40
63017;DHT22;50274;45.640;11.756;2022-09-09T17:03:30;25.40;62.60
63017;DHT22;50274;45.640;11.756;2022-09-09T17:05:57;25.30;63.00
63017;DHT22;50274;45.640;11.756;2022-09-09T17:08:24;25.30;63.20
63017;DHT22;50274;45.640;11.756;2022-09-09T17:10:50;25.20;63.30
63017;DHT22;50274;45.640;11.756;2022-09-09T17:13:16;25.20;63.50
63017;DHT22;50274;45.640;11.756;2022-09-09T17:15:45;25.20;63.60
63017;DHT22;50274;45.640;11.756;2022-09-09T17:18:12;25.10;63.80
63017;DHT22;50274;45.640;11.756;2022-09-09T17:20:39;25.10;63.90
63017;DHT22;50274;45.640;11.756;2022-09-09T17:23:07;25.10;64.00
63017;DHT22;50274;45.640;11.756;2022-09-09T17:25:33;25.10;64.20
63017;DHT22;50274;45.640;11.756;2022-09-09T17:28:00;25.10;64.30
63017;DHT22;50274;45.640;11.756;2022-09-09T17:30:27;25.10;64.50